sensor_id;sensor_type;location;lat;lon;timestamp;P1;durP1;ratioP1;P2;durP2;ratioP2
36597;SDS011;22607;49.550;11.940;2023-05-17T00:00:53;7.72;;;1.80;;
36597;SDS011;22607;49.550;11.940;2023-05-17T00:03:19;5.93;;;1.40;;
36597;SDS011;22607;49.550;11.940;2023-05-17T00:05:46;5.32;;;1.40;;
36597;SDS011;22607;49.550;11.940;2023-05-17T00:08:12;8.00;;;1.63;;
36597;SDS011;22607;49.550;11.940;2023-05-17T00:10:39;9.23;;;1.48;;
36597;SDS011;22607;49.550;11.940;2023-05-17T00:13:06;7.75;;;1.48;;
36597;SDS011;22607;49.550;11.940;2023-05-17T00:15:34;10.68;;;1.88;;
36597;SDS011;22607;49.550;11.940;2023-05-17T00:18:01;6.50;;;1.42;;
36597;SDS011;22607;49.550;11.940;2023-05-17T00:20:27;5.07;;;1.30;;
36597;SDS011;22607;49.550;11.940;2023-05-17T00:22:54;7.13;;;1.63;;
36597;SDS011;22607;49.550;11.940;2023-05-17T00:25:21;4.70;;;1.13;;
36597;SDS011;22607;49.550;11.940;2023-05-17T00:27:47;4.45;;;1.10;;
36597;SDS011;22607;49.550;11.940;2023-05-17T00:30:14;5.32;;;1.30;;
36597;SDS011;22607;49.550;11.940;2023-05-17T00:32:41;7.18;;;1.30;;
36597;SDS011;22607;49.550;11.940;2023-05-17T00:35:07;4.90;;;1.20;;
36597;SDS011;22607;49.550;11.940;2023-05-17T00:37:34;7.18;;;1.60;;
36597;SDS011;22607;49.550;11.940;2023-05-17T00:40:01;6.43;;;1.33;;
36597;SDS011;22607;49.550;11.940;2023-05-17T00:42:28;4.63;;;1.10;;
36597;SDS011;22607;49.550;11.940;2023-05-17T00:44:55;4.43;;;0.95;;
36597;SDS011;22607;49.550;11.940;2023-05-17T00:47:22;4.32;;;1.15;;
36597;SDS011;22607;49.550;11.940;2023-05-17T00:49:49;4.00;;;1.13;;
36597;SDS011;22607;49.550;11.940;2023-05-17T00:52:16;5.25;;;1.17;;
36597;SDS011;22607;49.550;11.940;2023-05-17T00:54:44;3.30;;;1.10;;
36597;SDS011;22607;49.550;11.940;2023-05-17T00:57:11;6.03;;;1.45;;
36597;SDS011;22607;49.550;11.940;2023-05-17T00:59:40;3.67;;;1.00;;
36597;SDS011;22607;49.550;11.940;2023-05-17T01:02:09;6.10;;;1.20;;
36597;SDS011;22607;49.550;11.940;2023-05-17T01:04:37;6.18;;;1.10;;
36597;SDS011;22607;49.550;11.940;2023-05-17T01:07:04;6.13;;;1.38;;
36597;SDS011;22607;49.550;11.940;2023-05-17T01:09:30;5.45;;;1.20;;
36597;SDS011;22607;49.550;11.940;2023-05-17T01:28:25;4.30;;;1.10;;
36597;SDS011;22607;49.550;11.940;2023-05-17T01:30:53;3.83;;;1.05;;
36597;SDS011;22607;49.550;11.940;2023-05-17T01:33:22;4.65;;;1.25;;
36597;SDS011;22607;49.550;11.940;2023-05-17T01:35:49;6.18;;;1.40;;
36597;SDS011;22607;49.550;11.940;2023-05-17T01:38:16;4.93;;;1.35;;
36597;SDS011;22607;49.550;11.940;2023-05-17T01:40:45;5.75;;;1.30;;
36597;SDS011;22607;49.550;11.940;2023-05-17T01:43:39;4.43;;;1.00;;
36597;SDS011;22607;49.550;11.940;2023-05-17T01:46:25;4.13;;;1.25;;
36597;SDS011;22607;49.550;11.940;2023-05-17T01:51:47;5.80;;;1.30;;
36597;SDS011;22607;49.550;11.940;2023-05-17T01:54:19;7.65;;;1.20;;
36597;SDS011;22607;49.550;11.940;2023-05-17T01:56:50;3.65;;;0.93;;
36597;SDS011;22607;49.550;11.940;2023-05-17T01:59:22;3.97;;;1.08;;
36597;SDS011;22607;49.550;11.940;2023-05-17T02:01:57;5.25;;;1.00;;
36597;SDS011;22607;49.550;11.940;2023-05-17T02:04:31;6.07;;;0.90;;
36597;SDS011;22607;49.550;11.940;2023-05-17T02:06:58;6.05;;;1.50;;
36597;SDS011;22607;49.550;11.940;2023-05-17T02:09:25;3.95;;;1.10;;
36597;SDS011;22607;49.550;11.940;2023-05-17T02:11:51;3.30;;;1.00;;
36597;SDS011;22607;49.550;11.940;2023-05-17T02:14:18;4.18;;;1.08;;
36597;SDS011;22607;49.550;11.940;2023-05-17T02:16:44;4.45;;;1.13;;
36597;SDS011;22607;49.550;11.940;2023-05-17T02:19:11;2.75;;;0.93;;
36597;SDS011;22607;49.550;11.940;2023-05-17T02:21:38;3.28;;;1.20;;
36597;SDS011;22607;49.550;11.940;2023-05-17T02:24:05;7.88;;;1.60;;
36597;SDS011;22607;49.550;11.940;2023-05-17T02:26:32;3.35;;;0.93;;
36597;SDS011;22607;49.550;11.940;2023-05-17T02:28:58;6.47;;;1.67;;
36597;SDS011;22607;49.550;11.940;2023-05-17T02:31:25;6.22;;;1.08;;
36597;SDS011;22607;49.550;11.940;2023-05-17T02:33:52;4.43;;;0.90;;
36597;SDS011;22607;49.550;11.940;2023-05-17T02:36:19;5.22;;;1.13;;
36597;SDS011;22607;49.550;11.940;2023-05-17T02:38:46;3.90;;;1.10;;
36597;SDS011;22607;49.550;11.940;2023-05-17T02:41:13;3.88;;;1.00;;
36597;SDS011;22607;49.550;11.940;2023-05-17T02:43:40;4.50;;;1.15;;
36597;SDS011;22607;49.550;11.940;2023-05-17T02:46:07;3.70;;;0.95;;
36597;SDS011;22607;49.550;11.940;2023-05-17T02:48:33;5.25;;;0.90;;
36597;SDS011;22607;49.550;11.940;2023-05-17T02:51:00;4.55;;;1.00;;
36597;SDS011;22607;49.550;11.940;2023-05-17T02:53:26;3.38;;;0.90;;
36597;SDS011;22607;49.550;11.940;2023-05-17T02:55:53;4.45;;;1.08;;
36597;SDS011;22607;49.550;11.940;2023-05-17T02:58:23;5.68;;;1.10;;
36597;SDS011;22607;49.550;11.940;2023-05-17T03:00:50;4.35;;;1.20;;
36597;SDS011;22607;49.550;11.940;2023-05-17T03:03:17;4.53;;;1.08;;
36597;SDS011;22607;49.550;11.940;2023-05-17T03:05:44;4.03;;;1.05;;
36597;SDS011;22607;49.550;11.940;2023-05-17T03:08:10;4.57;;;1.10;;
36597;SDS011;22607;49.550;11.940;2023-05-17T03:10:37;6.15;;;1.08;;
36597;SDS011;22607;49.550;11.940;2023-05-17T03:13:04;4.20;;;1.10;;
36597;SDS011;22607;49.550;11.940;2023-05-17T03:15:31;4.57;;;1.00;;
36597;SDS011;22607;49.550;11.940;2023-05-17T03:17:57;6.63;;;1.42;;
36597;SDS011;22607;49.550;11.940;2023-05-17T03:20:24;4.97;;;1.27;;
36597;SDS011;22607;49.550;11.940;2023-05-17T03:22:51;7.20;;;1.20;;
36597;SDS011;22607;49.550;11.940;2023-05-17T03:25:17;6.03;;;1.13;;
36597;SDS011;22607;49.550;11.940;2023-05-17T03:27:46;5.05;;;1.20;;
36597;SDS011;22607;49.550;11.940;2023-05-17T03:30:12;5.40;;;1.08;;
36597;SDS011;22607;49.550;11.940;2023-05-17T03:32:39;7.38;;;1.55;;
36597;SDS011;22607;49.550;11.940;2023-05-17T03:35:06;4.40;;;0.90;;
36597;SDS011;22607;49.550;11.940;2023-05-17T03:37:33;5.78;;;1.20;;
36597;SDS011;22607;49.550;11.940;2023-05-17T03:40:00;5.30;;;1.30;;
36597;SDS011;22607;49.550;11.940;2023-05-17T03:42:26;4.82;;;1.05;;
36597;SDS011;22607;49.550;11.940;2023-05-17T03:44:53;3.10;;;0.88;;
36597;SDS011;22607;49.550;11.940;2023-05-17T03:47:19;5.13;;;1.20;;
36597;SDS011;22607;49.550;11.940;2023-05-17T03:49:49;5.28;;;1.42;;
36597;SDS011;22607;49.550;11.940;2023-05-17T03:52:15;7.13;;;1.40;;
36597;SDS011;22607;49.550;11.940;2023-05-17T03:54:42;6.15;;;1.30;;
36597;SDS011;22607;49.550;11.940;2023-05-17T03:57:10;3.90;;;1.00;;
36597;SDS011;22607;49.550;11.940;2023-05-17T03:59:36;9.48;;;1.60;;
36597;SDS011;22607;49.550;11.940;2023-05-17T04:02:03;4.82;;;1.05;;
36597;SDS011;22607;49.550;11.940;2023-05-17T04:04:30;3.58;;;1.27;;
36597;SDS011;22607;49.550;11.940;2023-05-17T04:06:56;5.13;;;1.13;;
36597;SDS011;22607;49.550;11.940;2023-05-17T04:09:23;7.38;;;1.02;;
36597;SDS011;22607;49.550;11.940;2023-05-17T04:11:50;5.57;;;1.00;;
36597;SDS011;22607;49.550;11.940;2023-05-17T04:14:17;4.57;;;1.00;;
36597;SDS011;22607;49.550;11.940;2023-05-17T04:16:44;6.68;;;1.40;;
36597;SDS011;22607;49.550;11.940;2023-05-17T04:19:11;7.35;;;1.35;;
36597;SDS011;22607;49.550;11.940;2023-05-17T04:21:38;5.22;;;1.00;;
36597;SDS011;22607;49.550;11.940;2023-05-17T04:24:05;4.80;;;1.20;;
36597;SDS011;22607;49.550;11.940;2023-05-17T04:26:31;5.00;;;0.93;;
36597;SDS011;22607;49.550;11.940;2023-05-17T04:28:58;5.07;;;1.08;;
36597;SDS011;22607;49.550;11.940;2023-05-17T04:31:25;3.58;;;0.90;;
36597;SDS011;22607;49.550;11.940;2023-05-17T04:33:51;4.53;;;1.40;;
36597;SDS011;22607;49.550;11.940;2023-05-17T04:36:18;6.00;;;1.25;;
36597;SDS011;22607;49.550;11.940;2023-05-17T04:38:44;6.35;;;1.77;;
36597;SDS011;22607;49.550;11.940;2023-05-17T04:41:11;7.63;;;1.40;;
36597;SDS011;22607;49.550;11.940;2023-05-17T04:43:38;5.25;;;1.10;;
36597;SDS011;22607;49.550;11.940;2023-05-17T04:46:05;4.05;;;1.10;;
36597;SDS011;22607;49.550;11.940;2023-05-17T04:48:32;5.00;;;1.55;;
36597;SDS011;22607;49.550;11.940;2023-05-17T04:50:59;6.68;;;1.25;;
36597;SDS011;22607;49.550;11.940;2023-05-17T04:53:27;7.05;;;1.27;;
36597;SDS011;22607;49.550;11.940;2023-05-17T04:55:54;5.85;;;1.60;;
36597;SDS011;22607;49.550;11.940;2023-05-17T04:58:21;5.35;;;1.80;;
36597;SDS011;22607;49.550;11.940;2023-05-17T05:00:50;5.60;;;1.05;;
36597;SDS011;22607;49.550;11.940;2023-05-17T05:03:17;5.07;;;1.40;;
36597;SDS011;22607;49.550;11.940;2023-05-17T05:05:44;6.75;;;1.60;;
36597;SDS011;22607;49.550;11.940;2023-05-17T05:08:10;7.95;;;1.63;;
36597;SDS011;22607;49.550;11.940;2023-05-17T05:10:37;7.10;;;1.50;;
36597;SDS011;22607;49.550;11.940;2023-05-17T05:13:04;5.53;;;1.33;;
36597;SDS011;22607;49.550;11.940;2023-05-17T05:15:31;6.75;;;1.85;;
36597;SDS011;22607;49.550;11.940;2023-05-17T05:17:58;10.40;;;2.47;;
36597;SDS011;22607;49.550;11.940;2023-05-17T05:20:24;7.28;;;1.50;;
36597;SDS011;22607;49.550;11.940;2023-05-17T05:22:53;8.70;;;1.70;;
36597;SDS011;22607;49.550;11.940;2023-05-17T05:25:20;8.52;;;1.65;;
36597;SDS011;22607;49.550;11.940;2023-05-17T05:27:46;9.20;;;1.60;;
36597;SDS011;22607;49.550;11.940;2023-05-17T05:30:13;7.55;;;1.95;;
36597;SDS011;22607;49.550;11.940;2023-05-17T05:32:50;7.47;;;2.03;;
36597;SDS011;22607;49.550;11.940;2023-05-17T05:35:17;7.43;;;1.73;;
36597;SDS011;22607;49.550;11.940;2023-05-17T05:37:44;8.02;;;1.60;;
36597;SDS011;22607;49.550;11.940;2023-05-17T05:40:11;7.47;;;1.73;;
36597;SDS011;22607;49.550;11.940;2023-05-17T05:42:38;8.10;;;2.10;;
36597;SDS011;22607;49.550;11.940;2023-05-17T05:45:05;9.10;;;1.83;;
36597;SDS011;22607;49.550;11.940;2023-05-17T05:47:32;8.63;;;1.77;;
36597;SDS011;22607;49.550;11.940;2023-05-17T05:49:59;7.72;;;1.67;;
36597;SDS011;22607;49.550;11.940;2023-05-17T05:52:26;10.40;;;1.90;;
36597;SDS011;22607;49.550;11.940;2023-05-17T05:54:53;9.52;;;2.20;;
36597;SDS011;22607;49.550;11.940;2023-05-17T05:57:20;9.90;;;2.42;;
36597;SDS011;22607;49.550;11.940;2023-05-17T05:59:47;10.02;;;2.40;;
36597;SDS011;22607;49.550;11.940;2023-05-17T06:02:13;7.03;;;1.83;;
36597;SDS011;22607;49.550;11.940;2023-05-17T06:04:40;7.00;;;2.30;;
36597;SDS011;22607;49.550;11.940;2023-05-17T06:07:11;8.15;;;2.35;;
36597;SDS011;22607;49.550;11.940;2023-05-17T06:09:38;10.32;;;2.17;;
36597;SDS011;22607;49.550;11.940;2023-05-17T06:12:05;10.10;;;2.88;;
36597;SDS011;22607;49.550;11.940;2023-05-17T06:14:32;6.97;;;1.80;;
36597;SDS011;22607;49.550;11.940;2023-05-17T06:16:58;7.25;;;2.20;;
36597;SDS011;22607;49.550;11.940;2023-05-17T06:19:25;8.77;;;2.28;;
36597;SDS011;22607;49.550;11.940;2023-05-17T06:21:52;8.05;;;2.10;;
36597;SDS011;22607;49.550;11.940;2023-05-17T06:24:18;8.25;;;2.10;;
36597;SDS011;22607;49.550;11.940;2023-05-17T06:26:45;8.27;;;2.40;;
36597;SDS011;22607;49.550;11.940;2023-05-17T06:29:14;7.80;;;2.45;;
36597;SDS011;22607;49.550;11.940;2023-05-17T06:31:41;10.98;;;2.60;;
36597;SDS011;22607;49.550;11.940;2023-05-17T06:34:07;9.52;;;2.05;;
36597;SDS011;22607;49.550;11.940;2023-05-17T06:36:34;8.65;;;2.17;;
36597;SDS011;22607;49.550;11.940;2023-05-17T06:39:03;6.38;;;2.15;;
36597;SDS011;22607;49.550;11.940;2023-05-17T06:41:30;8.80;;;2.22;;
36597;SDS011;22607;49.550;11.940;2023-05-17T06:43:56;7.93;;;2.08;;
36597;SDS011;22607;49.550;11.940;2023-05-17T06:46:23;9.57;;;2.40;;
36597;SDS011;22607;49.550;11.940;2023-05-17T06:48:49;8.13;;;2.00;;
36597;SDS011;22607;49.550;11.940;2023-05-17T06:51:16;7.75;;;2.13;;
36597;SDS011;22607;49.550;11.940;2023-05-17T06:53:43;9.68;;;2.47;;
36597;SDS011;22607;49.550;11.940;2023-05-17T06:56:10;7.57;;;2.20;;
36597;SDS011;22607;49.550;11.940;2023-05-17T06:58:36;8.90;;;2.70;;
36597;SDS011;22607;49.550;11.940;2023-05-17T07:01:03;8.32;;;2.08;;
36597;SDS011;22607;49.550;11.940;2023-05-17T07:03:29;10.27;;;2.60;;
36597;SDS011;22607;49.550;11.940;2023-05-17T07:05:56;9.20;;;2.38;;
36597;SDS011;22607;49.550;11.940;2023-05-17T07:08:23;8.88;;;2.90;;
36597;SDS011;22607;49.550;11.940;2023-05-17T07:10:50;9.27;;;2.30;;
36597;SDS011;22607;49.550;11.940;2023-05-17T07:13:17;11.50;;;2.92;;
36597;SDS011;22607;49.550;11.940;2023-05-17T07:15:44;10.55;;;2.80;;
36597;SDS011;22607;49.550;11.940;2023-05-17T07:18:11;7.75;;;2.30;;
36597;SDS011;22607;49.550;11.940;2023-05-17T07:20:38;9.55;;;2.80;;
36597;SDS011;22607;49.550;11.940;2023-05-17T07:23:05;8.45;;;2.50;;
36597;SDS011;22607;49.550;11.940;2023-05-17T07:25:31;8.50;;;2.33;;
36597;SDS011;22607;49.550;11.940;2023-05-17T07:27:58;9.52;;;2.33;;
36597;SDS011;22607;49.550;11.940;2023-05-17T07:30:26;8.88;;;2.70;;
36597;SDS011;22607;49.550;11.940;2023-05-17T07:32:53;10.55;;;2.80;;
36597;SDS011;22607;49.550;11.940;2023-05-17T07:35:19;8.52;;;2.70;;
36597;SDS011;22607;49.550;11.940;2023-05-17T07:37:47;8.88;;;2.47;;
36597;SDS011;22607;49.550;11.940;2023-05-17T07:40:17;10.88;;;2.80;;
36597;SDS011;22607;49.550;11.940;2023-05-17T07:42:43;11.15;;;3.00;;
36597;SDS011;22607;49.550;11.940;2023-05-17T07:45:10;9.75;;;3.03;;
36597;SDS011;22607;49.550;11.940;2023-05-17T07:47:36;10.50;;;2.95;;
36597;SDS011;22607;49.550;11.940;2023-05-17T07:50:03;10.65;;;3.60;;
36597;SDS011;22607;49.550;11.940;2023-05-17T07:52:31;10.95;;;2.67;;
36597;SDS011;22607;49.550;11.940;2023-05-17T07:54:57;8.82;;;2.88;;
36597;SDS011;22607;49.550;11.940;2023-05-17T07:57:24;8.20;;;2.25;;
36597;SDS011;22607;49.550;11.940;2023-05-17T07:59:52;9.35;;;3.05;;
36597;SDS011;22607;49.550;11.940;2023-05-17T08:02:18;9.00;;;2.65;;
36597;SDS011;22607;49.550;11.940;2023-05-17T08:04:51;9.65;;;2.90;;
36597;SDS011;22607;49.550;11.940;2023-05-17T08:07:18;9.55;;;3.35;;
36597;SDS011;22607;49.550;11.940;2023-05-17T08:09:45;9.30;;;3.42;;
36597;SDS011;22607;49.550;11.940;2023-05-17T08:12:12;11.05;;;2.33;;
36597;SDS011;22607;49.550;11.940;2023-05-17T08:14:38;9.85;;;2.67;;
36597;SDS011;22607;49.550;11.940;2023-05-17T08:17:05;10.60;;;2.80;;
36597;SDS011;22607;49.550;11.940;2023-05-17T08:19:32;7.75;;;2.45;;
36597;SDS011;22607;49.550;11.940;2023-05-17T08:21:58;8.85;;;2.60;;
36597;SDS011;22607;49.550;11.940;2023-05-17T08:24:25;8.45;;;2.30;;
36597;SDS011;22607;49.550;11.940;2023-05-17T08:26:52;6.70;;;1.77;;
36597;SDS011;22607;49.550;11.940;2023-05-17T08:29:18;9.30;;;2.90;;
36597;SDS011;22607;49.550;11.940;2023-05-17T08:31:45;9.43;;;2.60;;
36597;SDS011;22607;49.550;11.940;2023-05-17T08:34:11;10.10;;;2.88;;
36597;SDS011;22607;49.550;11.940;2023-05-17T08:36:38;9.93;;;2.25;;
36597;SDS011;22607;49.550;11.940;2023-05-17T08:39:05;7.55;;;2.25;;
36597;SDS011;22607;49.550;11.940;2023-05-17T08:41:33;7.50;;;2.22;;
36597;SDS011;22607;49.550;11.940;2023-05-17T08:44:03;11.45;;;2.35;;
36597;SDS011;22607;49.550;11.940;2023-05-17T08:46:32;9.38;;;2.53;;
36597;SDS011;22607;49.550;11.940;2023-05-17T08:49:01;8.38;;;2.50;;
36597;SDS011;22607;49.550;11.940;2023-05-17T08:51:30;9.98;;;2.40;;
36597;SDS011;22607;49.550;11.940;2023-05-17T08:53:58;11.30;;;3.03;;
36597;SDS011;22607;49.550;11.940;2023-05-17T08:56:25;8.15;;;2.60;;
36597;SDS011;22607;49.550;11.940;2023-05-17T08:58:54;10.07;;;2.60;;
36597;SDS011;22607;49.550;11.940;2023-05-17T09:01:23;10.18;;;2.42;;
36597;SDS011;22607;49.550;11.940;2023-05-17T09:03:52;8.10;;;2.60;;
36597;SDS011;22607;49.550;11.940;2023-05-17T09:06:20;8.73;;;2.50;;
36597;SDS011;22607;49.550;11.940;2023-05-17T09:08:48;9.77;;;2.53;;
36597;SDS011;22607;49.550;11.940;2023-05-17T09:11:25;7.33;;;2.23;;
36597;SDS011;22607;49.550;11.940;2023-05-17T09:13:53;9.45;;;2.40;;
36597;SDS011;22607;49.550;11.940;2023-05-17T09:16:24;9.53;;;2.30;;
36597;SDS011;22607;49.550;11.940;2023-05-17T09:18:57;8.98;;;2.60;;
36597;SDS011;22607;49.550;11.940;2023-05-17T09:21:25;9.75;;;2.63;;
36597;SDS011;22607;49.550;11.940;2023-05-17T09:23:53;10.35;;;2.40;;
36597;SDS011;22607;49.550;11.940;2023-05-17T09:26:42;9.23;;;2.22;;
36597;SDS011;22607;49.550;11.940;2023-05-17T09:29:10;9.32;;;2.28;;
36597;SDS011;22607;49.550;11.940;2023-05-17T09:31:38;8.70;;;2.25;;
36597;SDS011;22607;49.550;11.940;2023-05-17T09:34:06;12.55;;;2.95;;
36597;SDS011;22607;49.550;11.940;2023-05-17T09:36:34;7.88;;;2.40;;
36597;SDS011;22607;49.550;11.940;2023-05-17T09:39:03;7.88;;;2.50;;
36597;SDS011;22607;49.550;11.940;2023-05-17T09:41:32;7.68;;;2.00;;
36597;SDS011;22607;49.550;11.940;2023-05-17T09:44:09;8.70;;;2.30;;
36597;SDS011;22607;49.550;11.940;2023-05-17T09:46:37;8.55;;;2.30;;
36597;SDS011;22607;49.550;11.940;2023-05-17T09:49:07;9.73;;;2.13;;
36597;SDS011;22607;49.550;11.940;2023-05-17T09:51:35;8.88;;;2.30;;
36597;SDS011;22607;49.550;11.940;2023-05-17T09:54:02;8.23;;;2.60;;
36597;SDS011;22607;49.550;11.940;2023-05-17T09:56:32;9.55;;;2.58;;
36597;SDS011;22607;49.550;11.940;2023-05-17T09:59:00;7.70;;;2.10;;
36597;SDS011;22607;49.550;11.940;2023-05-17T10:01:29;8.38;;;2.00;;
36597;SDS011;22607;49.550;11.940;2023-05-17T10:04:00;8.50;;;1.95;;
36597;SDS011;22607;49.550;11.940;2023-05-17T10:06:28;8.43;;;2.05;;
36597;SDS011;22607;49.550;11.940;2023-05-17T10:09:15;9.52;;;2.08;;
36597;SDS011;22607;49.550;11.940;2023-05-17T10:11:42;9.53;;;2.47;;
36597;SDS011;22607;49.550;11.940;2023-05-17T10:14:14;9.57;;;2.15;;
36597;SDS011;22607;49.550;11.940;2023-05-17T10:16:44;8.15;;;2.13;;
36597;SDS011;22607;49.550;11.940;2023-05-17T10:19:11;9.77;;;2.47;;
36597;SDS011;22607;49.550;11.940;2023-05-17T10:21:39;7.93;;;1.95;;
36597;SDS011;22607;49.550;11.940;2023-05-17T10:24:09;9.57;;;2.28;;
36597;SDS011;22607;49.550;11.940;2023-05-17T10:26:37;8.45;;;1.60;;
36597;SDS011;22607;49.550;11.940;2023-05-17T10:29:04;7.85;;;2.33;;
36597;SDS011;22607;49.550;11.940;2023-05-17T10:31:32;8.52;;;2.20;;
36597;SDS011;22607;49.550;11.940;2023-05-17T10:36:27;7.70;;;2.30;;
36597;SDS011;22607;49.550;11.940;2023-05-17T10:38:54;8.52;;;2.20;;
36597;SDS011;22607;49.550;11.940;2023-05-17T10:41:22;8.02;;;2.10;;
36597;SDS011;22607;49.550;11.940;2023-05-17T10:43:51;8.45;;;1.92;;
36597;SDS011;22607;49.550;11.940;2023-05-17T10:46:19;8.80;;;1.92;;
36597;SDS011;22607;49.550;11.940;2023-05-17T10:48:51;7.38;;;1.83;;
36597;SDS011;22607;49.550;11.940;2023-05-17T10:51:24;8.20;;;2.30;;
36597;SDS011;22607;49.550;11.940;2023-05-17T10:56:30;8.25;;;2.05;;
36597;SDS011;22607;49.550;11.940;2023-05-17T10:59:41;8.68;;;2.33;;
36597;SDS011;22607;49.550;11.940;2023-05-17T11:09:42;7.38;;;1.85;;
36597;SDS011;22607;49.550;11.940;2023-05-17T11:12:11;6.82;;;1.70;;
36597;SDS011;22607;49.550;11.940;2023-05-17T11:17:15;7.45;;;1.85;;
36597;SDS011;22607;49.550;11.940;2023-05-17T11:19:59;7.70;;;2.00;;
36597;SDS011;22607;49.550;11.940;2023-05-17T11:22:29;8.07;;;2.03;;
36597;SDS011;22607;49.550;11.940;2023-05-17T11:25:04;8.90;;;2.40;;
36597;SDS011;22607;49.550;11.940;2023-05-17T11:27:38;8.07;;;1.92;;
36597;SDS011;22607;49.550;11.940;2023-05-17T11:32:50;7.68;;;1.85;;
36597;SDS011;22607;49.550;11.940;2023-05-17T11:35:24;7.70;;;1.70;;
36597;SDS011;22607;49.550;11.940;2023-05-17T11:37:52;7.25;;;1.80;;
36597;SDS011;22607;49.550;11.940;2023-05-17T11:40:37;8.38;;;2.17;;
36597;SDS011;22607;49.550;11.940;2023-05-17T11:43:09;7.50;;;2.35;;
36597;SDS011;22607;49.550;11.940;2023-05-17T11:48:23;9.18;;;2.17;;
36597;SDS011;22607;49.550;11.940;2023-05-17T11:50:52;7.47;;;2.05;;
36597;SDS011;22607;49.550;11.940;2023-05-17T11:53:21;9.48;;;2.25;;
36597;SDS011;22607;49.550;11.940;2023-05-17T11:55:50;7.72;;;1.83;;
36597;SDS011;22607;49.550;11.940;2023-05-17T11:58:24;7.88;;;2.10;;
36597;SDS011;22607;49.550;11.940;2023-05-17T12:00:55;6.60;;;2.10;;
36597;SDS011;22607;49.550;11.940;2023-05-17T12:03:24;7.68;;;2.00;;
36597;SDS011;22607;49.550;11.940;2023-05-17T12:08:28;8.35;;;2.10;;
36597;SDS011;22607;49.550;11.940;2023-05-17T12:10:57;8.18;;;2.10;;
36597;SDS011;22607;49.550;11.940;2023-05-17T12:13:26;7.75;;;2.33;;
36597;SDS011;22607;49.550;11.940;2023-05-17T12:15:58;6.60;;;1.90;;
36597;SDS011;22607;49.550;11.940;2023-05-17T12:18:36;8.57;;;2.10;;
36597;SDS011;22607;49.550;11.940;2023-05-17T12:21:06;7.60;;;1.90;;
36597;SDS011;22607;49.550;11.940;2023-05-17T12:23:37;7.47;;;1.95;;
36597;SDS011;22607;49.550;11.940;2023-05-17T12:26:08;8.73;;;2.25;;
36597;SDS011;22607;49.550;11.940;2023-05-17T12:28:36;7.43;;;2.33;;
36597;SDS011;22607;49.550;11.940;2023-05-17T12:31:11;7.18;;;2.13;;
36597;SDS011;22607;49.550;11.940;2023-05-17T12:33:40;9.38;;;2.08;;
36597;SDS011;22607;49.550;11.940;2023-05-17T12:36:09;6.80;;;1.95;;
36597;SDS011;22607;49.550;11.940;2023-05-17T12:38:38;8.82;;;2.10;;
36597;SDS011;22607;49.550;11.940;2023-05-17T12:41:07;6.22;;;1.80;;
36597;SDS011;22607;49.550;11.940;2023-05-17T12:43:39;8.85;;;1.98;;
36597;SDS011;22607;49.550;11.940;2023-05-17T12:46:16;8.45;;;1.92;;
36597;SDS011;22607;49.550;11.940;2023-05-17T12:48:46;6.57;;;1.83;;
36597;SDS011;22607;49.550;11.940;2023-05-17T12:51:13;7.70;;;1.88;;
36597;SDS011;22607;49.550;11.940;2023-05-17T12:53:51;10.43;;;2.60;;
36597;SDS011;22607;49.550;11.940;2023-05-17T12:56:20;8.00;;;2.13;;
36597;SDS011;22607;49.550;11.940;2023-05-17T13:04:11;8.35;;;2.83;;
36597;SDS011;22607;49.550;11.940;2023-05-17T13:09:14;7.43;;;1.75;;
36597;SDS011;22607;49.550;11.940;2023-05-17T13:11:50;7.07;;;1.80;;
36597;SDS011;22607;49.550;11.940;2023-05-17T13:14:36;7.93;;;1.90;;
36597;SDS011;22607;49.550;11.940;2023-05-17T13:17:04;7.82;;;2.22;;
36597;SDS011;22607;49.550;11.940;2023-05-17T13:19:32;6.75;;;2.08;;
36597;SDS011;22607;49.550;11.940;2023-05-17T13:22:01;6.20;;;1.98;;
36597;SDS011;22607;49.550;11.940;2023-05-17T13:24:32;7.43;;;1.90;;
36597;SDS011;22607;49.550;11.940;2023-05-17T13:27:00;8.68;;;2.40;;
36597;SDS011;22607;49.550;11.940;2023-05-17T13:29:28;7.82;;;2.25;;
36597;SDS011;22607;49.550;11.940;2023-05-17T13:32:06;6.95;;;2.08;;
36597;SDS011;22607;49.550;11.940;2023-05-17T13:34:34;7.35;;;2.13;;
36597;SDS011;22607;49.550;11.940;2023-05-17T13:37:01;9.93;;;2.17;;
36597;SDS011;22607;49.550;11.940;2023-05-17T13:39:27;7.75;;;1.90;;
36597;SDS011;22607;49.550;11.940;2023-05-17T13:41:54;8.00;;;2.13;;
36597;SDS011;22607;49.550;11.940;2023-05-17T13:44:20;7.50;;;2.15;;
36597;SDS011;22607;49.550;11.940;2023-05-17T13:46:47;8.23;;;2.38;;
36597;SDS011;22607;49.550;11.940;2023-05-17T13:49:14;6.85;;;1.83;;
36597;SDS011;22607;49.550;11.940;2023-05-17T13:51:40;7.93;;;2.17;;
36597;SDS011;22607;49.550;11.940;2023-05-17T13:54:08;7.13;;;2.08;;
36597;SDS011;22607;49.550;11.940;2023-05-17T13:56:36;7.70;;;2.15;;
36597;SDS011;22607;49.550;11.940;2023-05-17T13:59:02;8.02;;;2.20;;
36597;SDS011;22607;49.550;11.940;2023-05-17T14:01:29;10.35;;;2.13;;
36597;SDS011;22607;49.550;11.940;2023-05-17T14:03:56;7.50;;;2.08;;
36597;SDS011;22607;49.550;11.940;2023-05-17T14:06:22;7.22;;;2.13;;
36597;SDS011;22607;49.550;11.940;2023-05-17T14:08:50;7.20;;;1.95;;
36597;SDS011;22607;49.550;11.940;2023-05-17T14:11:19;7.80;;;2.30;;
36597;SDS011;22607;49.550;11.940;2023-05-17T14:13:46;8.15;;;2.22;;
36597;SDS011;22607;49.550;11.940;2023-05-17T14:16:13;8.25;;;2.00;;
36597;SDS011;22607;49.550;11.940;2023-05-17T14:18:40;7.10;;;2.08;;
36597;SDS011;22607;49.550;11.940;2023-05-17T14:21:06;7.80;;;2.50;;
36597;SDS011;22607;49.550;11.940;2023-05-17T14:23:35;8.30;;;1.98;;
36597;SDS011;22607;49.550;11.940;2023-05-17T14:26:02;7.70;;;2.20;;
36597;SDS011;22607;49.550;11.940;2023-05-17T14:28:33;7.68;;;2.22;;
36597;SDS011;22607;49.550;11.940;2023-05-17T14:31:07;7.20;;;2.03;;
36597;SDS011;22607;49.550;11.940;2023-05-17T14:33:34;8.32;;;2.35;;
36597;SDS011;22607;49.550;11.940;2023-05-17T14:36:02;7.13;;;2.70;;
36597;SDS011;22607;49.550;11.940;2023-05-17T14:38:29;8.10;;;2.13;;
36597;SDS011;22607;49.550;11.940;2023-05-17T14:40:56;6.22;;;2.03;;
36597;SDS011;22607;49.550;11.940;2023-05-17T14:43:25;9.13;;;2.05;;
36597;SDS011;22607;49.550;11.940;2023-05-17T14:45:51;8.18;;;2.38;;
36597;SDS011;22607;49.550;11.940;2023-05-17T14:48:18;9.43;;;2.22;;
36597;SDS011;22607;49.550;11.940;2023-05-17T14:50:45;8.32;;;2.22;;
36597;SDS011;22607;49.550;11.940;2023-05-17T14:53:13;7.20;;;2.08;;
36597;SDS011;22607;49.550;11.940;2023-05-17T14:55:39;10.80;;;2.40;;
36597;SDS011;22607;49.550;11.940;2023-05-17T14:58:06;8.85;;;2.30;;
36597;SDS011;22607;49.550;11.940;2023-05-17T15:00:33;7.68;;;2.15;;
36597;SDS011;22607;49.550;11.940;2023-05-17T15:03:00;10.27;;;3.00;;
36597;SDS011;22607;49.550;11.940;2023-05-17T15:05:27;8.52;;;2.17;;
36597;SDS011;22607;49.550;11.940;2023-05-17T15:07:54;10.52;;;2.42;;
36597;SDS011;22607;49.550;11.940;2023-05-17T15:10:20;7.70;;;2.25;;
36597;SDS011;22607;49.550;11.940;2023-05-17T15:12:48;7.63;;;2.15;;
36597;SDS011;22607;49.550;11.940;2023-05-17T15:15:15;9.23;;;2.20;;
36597;SDS011;22607;49.550;11.940;2023-05-17T15:17:41;9.52;;;2.60;;
36597;SDS011;22607;49.550;11.940;2023-05-17T15:20:08;7.43;;;2.13;;
36597;SDS011;22607;49.550;11.940;2023-05-17T15:22:35;7.97;;;2.40;;
36597;SDS011;22607;49.550;11.940;2023-05-17T15:25:04;6.80;;;1.88;;
36597;SDS011;22607;49.550;11.940;2023-05-17T15:27:31;7.40;;;2.10;;
36597;SDS011;22607;49.550;11.940;2023-05-17T15:29:57;6.60;;;1.98;;